Time;durP1;ratioP1;P1;durP2;ratioP2;P2;SDS_P1;SDS_P2;PMS_P1;PMS_P2;Temp;Humidity;BMP_temperature;BMP_pressure;BME280_temperature;BME280_humidity;BME280_pressure;Samples;Min_cycle;Max_cycle;Signal;HPM_P1;HPM_P2
2021/01/18 00:02:09;;;;;;;4.30;1.33;;;;;;;0.55;83.38;101376.56;5030190;28;20213;-72
2021/01/18 00:04:36;;;;;;;1.10;1.00;;;;;;;0.51;83.41;101383.66;5028514;28;20245;-72
2021/01/18 00:07:05;;;;;;;2.40;1.57;;;;;;;0.51;83.66;101366.94;5028429;28;20235;-72
2021/01/18 00:09:33;;;;;;;2.70;1.57;;;;;;;0.47;83.55;101367.91;5023467;28;20834;-72
2021/01/18 00:12:00;;;;;;;3.17;2.07;;;;;;;0.38;83.46;101360.13;5029665;28;20204;-72
2021/01/18 00:14:27;;;;;;;3.47;1.67;;;;;;;0.37;83.65;101353.97;5029114;28;20210;-72
2021/01/18 00:16:55;;;;;;;2.80;1.87;;;;;;;0.37;83.82;101346.03;5027636;28;20201;-72
2021/01/18 00:19:23;;;;;;;2.07;1.50;;;;;;;0.36;83.73;101340.78;5029689;28;20239;-72
2021/01/18 00:21:50;;;;;;;2.93;1.87;;;;;;;0.17;84.09;101312.03;5029607;28;20217;-72
2021/01/18 00:24:17;;;;;;;2.53;1.90;;;;;;;0.35;84.13;101336.41;5029719;28;20221;-72
2021/01/18 00:26:47;;;;;;;4.23;1.63;;;;;;;0.27;84.41;101316.25;5028900;28;20199;-72
2021/01/18 00:29:14;;;;;;;4.17;1.60;;;;;;;0.44;84.42;101341.53;5029676;28;20205;-72
2021/01/18 00:31:45;;;;;;;2.20;1.20;;;;;;;0.45;84.50;101340.63;5025247;28;20223;-72
2021/01/18 00:34:13;;;;;;;3.67;1.50;;;;;;;0.44;84.37;101352.09;5028613;28;20201;-72
2021/01/18 00:36:45;;;;;;;1.70;1.10;;;;;;;0.41;84.34;101349.50;5029592;28;20294;-72
2021/01/18 00:39:12;;;;;;;1.13;1.00;;;;;;;0.40;84.23;101350.41;5025907;28;20291;-72
2021/01/18 00:41:41;;;;;;;1.00;1.00;;;;;;;0.32;84.05;101339.09;5029231;28;20208;-72
2021/01/18 00:44:08;;;;;;;0.93;0.83;;;;;;;0.37;83.83;101342.53;5029082;28;20577;-72
2021/01/18 00:46:35;;;;;;;1.10;1.00;;;;;;;0.32;83.88;101339.09;5029088;28;20215;-72
2021/01/18 00:49:02;;;;;;;2.27;0.90;;;;;;;0.32;83.79;101345.25;5024773;28;20214;-72
2021/01/18 00:51:38;;;;;;;1.63;0.80;;;;;;;0.30;84.03;101334.69;5027721;28;20220;-72
2021/01/18 00:54:08;;;;;;;1.00;0.90;;;;;;;0.30;84.10;101337.31;5028978;28;20204;-73
2021/01/18 00:56:43;;;;;;;1.23;0.70;;;;;;;0.26;83.75;101330.34;5027892;28;20221;-72
2021/01/18 00:59:19;;;;;;;1.60;0.97;;;;;;;0.31;84.13;101332.94;5027677;28;20200;-72
2021/01/18 01:01:50;;;;;;;17.67;8.03;;;;;;;0.24;83.18;101324.22;5026886;28;20351;-72
2021/01/18 01:04:19;;;;;;;8.50;5.53;;;;;;;0.13;83.98;101305.06;5028113;28;20228;-72
2021/01/18 01:06:47;;;;;;;5.33;2.80;;;;;;;0.36;84.57;101335.50;5026696;28;20214;-72
2021/01/18 01:09:14;;;;;;;0.77;0.77;;;;;;;0.32;84.09;101328.53;5028883;28;20210;-72
2021/01/18 01:11:45;;;;;;;2.33;1.30;;;;;;;0.31;83.55;101327.66;5015385;28;20304;-72
2021/01/18 01:14:12;;;;;;;1.37;1.27;;;;;;;0.40;84.00;101332.78;5021722;28;20260;-72
2021/01/18 01:16:42;;;;;;;0.93;0.93;;;;;;;0.20;81.86;101316.38;5028177;28;20217;-72
2021/01/18 01:19:10;;;;;;;1.73;1.30;;;;;;;0.35;83.35;101323.19;5028677;28;20199;-73
2021/01/18 01:21:37;;;;;;;1.10;1.00;;;;;;;0.32;81.60;101323.25;5028661;28;20205;-72
2021/01/18 01:24:07;;;;;;;1.63;1.07;;;;;;;0.38;82.90;101324.03;5027802;28;20274;-72
2021/01/18 01:26:34;;;;;;;2.00;0.90;;;;;;;0.39;82.95;101324.88;5027226;28;20748;-72
2021/01/18 01:29:01;;;;;;;30.63;20.07;;;;;;;0.44;83.41;101318.63;5027858;28;20651;-72
2021/01/18 01:31:28;;;;;;;1.93;1.83;;;;;;;0.44;83.33;101312.47;5028609;28;20306;-72
2021/01/18 01:33:56;;;;;;;1.17;1.07;;;;;;;0.53;84.03;101313.19;5026070;28;20203;-72
2021/01/18 01:36:24;;;;;;;1.60;1.30;;;;;;;0.54;84.15;101308.75;5014570;28;20688;-72
2021/01/18 01:38:51;;;;;;;1.67;1.10;;;;;;;0.53;83.81;101305.25;5027224;28;20294;-72
2021/01/18 01:41:19;;;;;;;1.37;1.10;;;;;;;0.45;82.98;101314.22;5028382;28;20674;-72
2021/01/18 01:43:46;;;;;;;1.30;1.20;;;;;;;0.41;82.79;101304.59;5018766;28;20682;-72
2021/01/18 01:46:14;;;;;;;1.10;1.07;;;;;;;0.38;82.85;101305.53;5016710;28;20217;-72
2021/01/18 01:48:42;;;;;;;0.97;0.87;;;;;;;0.35;82.58;101307.34;5024431;28;20302;-72
2021/01/18 01:51:09;;;;;;;0.60;0.60;;;;;;;0.39;83.13;101304.63;5027520;28;20204;-72
2021/01/18 01:53:37;;;;;;;2.03;0.80;;;;;;;0.34;82.82;101295.91;5028086;28;20208;-72
2021/01/18 01:56:05;;;;;;;1.03;0.80;;;;;;;0.30;81.90;101300.34;5027115;28;20200;-72
2021/01/18 01:58:33;;;;;;;2.40;1.20;;;;;;;0.23;82.32;101296.06;5027755;28;20685;-72
2021/01/18 02:01:04;;;;;;;2.47;1.10;;;;;;;0.19;81.81;101293.50;5026638;28;20212;-72
2021/01/18 02:03:39;;;;;;;0.97;0.80;;;;;;;0.20;82.54;101288.22;5018837;28;20232;-72
2021/01/18 02:06:07;;;;;;;1.90;1.43;;;;;;;-0.08;81.98;101249.94;5023072;28;20671;-72
2021/01/18 02:08:35;;;;;;;0.80;0.80;;;;;;;0.19;82.36;101291.75;5018954;28;20543;-72
2021/01/18 02:11:03;;;;;;;1.10;1.10;;;;;;;0.20;82.69;101289.97;5010982;28;20329;-72
2021/01/18 02:13:54;;;;;;;0.93;0.90;;;;;;;0.12;82.01;101287.47;5023379;28;20294;-72
2021/01/18 02:16:27;;;;;;;0.83;0.80;;;;;;;0.14;82.66;101274.25;5027319;28;20269;-72
2021/01/18 02:19:51;;;;;;;0.93;0.80;;;;;;;0.17;82.46;101282.97;5059308;28;20221;-72
2021/01/18 02:22:45;;;;;;;1.90;1.00;;;;;;;0.15;82.62;101279.50;5003466;28;20221;-72
2021/01/18 02:25:33;;;;;;;1.30;1.20;;;;;;;0.16;82.47;101270.69;5004744;28;20222;-72
2021/01/18 02:28:20;;;;;;;1.00;1.00;;;;;;;0.13;82.40;101265.44;5011927;28;20676;-72
2021/01/18 02:31:22;;;;;;;3.37;1.20;;;;;;;0.14;82.53;101276.88;5021682;28;20203;-72
2021/01/18 02:34:23;;;;;;;0.80;0.80;;;;;;;0.09;82.26;101274.31;5022441;28;20556;-72
2021/01/18 02:37:11;;;;;;;0.67;0.67;;;;;;;0.09;81.71;101273.44;5015259;28;20776;-72
2021/01/18 02:39:50;;;;;;;1.67;1.10;;;;;;;0.06;81.68;101270.88;5025149;28;20847;-72
2021/01/18 02:42:23;;;;;;;6.83;1.13;;;;;;;0.09;82.03;101268.16;5027225;28;20217;-72
2021/01/18 02:44:51;;;;;;;1.23;1.10;;;;;;;0.02;81.25;101261.25;5025907;28;20228;-72
2021/01/18 02:47:20;;;;;;;1.17;0.93;;;;;;;0.04;81.26;101260.31;5026081;28;20534;-72
2021/01/18 02:49:51;;;;;;;3.40;1.33;;;;;;;-0.11;80.87;101260.56;5027013;28;20215;-72
2021/01/18 02:52:19;;;;;;;149.93;57.80;;;;;;;-0.05;81.45;101260.44;5025726;28;20906;-72
2021/01/18 02:54:46;;;;;;;27.30;11.53;;;;;;;0.08;81.88;101262.03;5026981;28;20211;-72
2021/01/18 02:57:15;;;;;;;6.30;2.50;;;;;;;0.04;81.90;101248.91;5025609;28;20208;-72
2021/01/18 02:59:43;;;;;;;2.33;1.17;;;;;;;0.06;81.99;101247.97;5016141;28;20214;-72
2021/01/18 03:02:18;;;;;;;3.03;1.27;;;;;;;0.17;82.42;101240.72;5026229;28;20216;-72
2021/01/18 03:05:17;;;;;;;1.97;1.20;;;;;;;0.05;81.30;101235.66;5019170;28;20691;-72
2021/01/18 03:08:11;;;;;;;1.93;1.23;;;;;;;0.08;81.08;101242.66;5026820;28;20202;-72
2021/01/18 03:10:41;;;;;;;0.87;0.87;;;;;;;0.11;81.04;101242.63;5020456;28;20202;-73
2021/01/18 03:13:16;;;;;;;0.93;0.90;;;;;;;0.04;80.36;101233.94;5026622;28;20943;-72
2021/01/18 03:15:47;;;;;;;1.33;0.97;;;;;;;-0.01;80.75;101233.09;5026675;28;20216;-72
2021/01/18 03:18:18;;;;;;;1.53;0.80;;;;;;;0.08;81.08;101229.47;5026802;28;20199;-72
2021/01/18 03:20:46;;;;;;;1.20;1.07;;;;;;;0.13;81.42;101239.03;5026199;28;20213;-72
2021/01/18 03:23:15;;;;;;;1.87;1.60;;;;;;;0.23;81.73;101245.91;5013230;28;20296;-71
2021/01/18 03:25:50;;;;;;;1.63;1.30;;;;;;;0.30;82.17;101242.25;5025133;28;20214;-72
2021/01/18 03:28:18;;;;;;;2.03;1.27;;;;;;;0.29;81.96;101229.06;5026507;28;20213;-72
2021/01/18 03:30:45;;;;;;;1.43;1.33;;;;;;;0.38;82.23;101243.91;5025816;28;20200;-72
2021/01/18 03:33:13;;;;;;;1.10;1.00;;;;;;;0.35;82.13;101242.19;5025400;28;20208;-72
2021/01/18 03:35:41;;;;;;;3.73;1.37;;;;;;;0.35;82.39;101244.84;5026364;28;20324;-72
2021/01/18 03:38:08;;;;;;;1.17;1.00;;;;;;;0.39;82.50;101240.38;5025634;28;20255;-72
2021/01/18 03:40:37;;;;;;;1.00;0.97;;;;;;;0.30;81.58;101244.03;5026668;28;20203;-72
2021/01/18 03:43:07;;;;;;;1.03;0.80;;;;;;;0.29;82.12;101227.31;5022130;28;20737;-72
2021/01/18 03:45:36;;;;;;;0.57;0.57;;;;;;;0.34;82.29;101232.53;5025567;28;20205;-72
2021/01/18 03:48:04;;;;;;;1.00;0.90;;;;;;;0.36;82.09;101227.22;5024911;28;20282;-71
2021/01/18 03:50:32;;;;;;;2.67;0.90;;;;;;;0.32;82.41;101244.03;5026656;28;20197;-72
2021/01/18 03:53:00;;;;;;;0.63;0.63;;;;;;;0.28;81.93;101237.91;5026038;28;20205;-72
2021/01/18 03:55:27;;;;;;;1.03;0.97;;;;;;;0.29;82.54;101229.94;5025742;28;20893;-72
2021/01/18 03:57:57;;;;;;;0.83;0.83;;;;;;;0.30;82.95;101231.69;5026446;28;20198;-72
2021/01/18 04:00:25;;;;;;;5.23;0.90;;;;;;;0.32;82.89;101238.75;5025205;28;20753;-72
2021/01/18 04:02:53;;;;;;;1.30;1.20;;;;;;;0.33;83.21;101232.56;5026279;28;20558;-72
2021/01/18 04:05:21;;;;;;;2.33;1.37;;;;;;;0.33;83.14;101225.50;5024761;28;20200;-72
2021/01/18 04:07:49;;;;;;;1.77;1.40;;;;;;;0.33;83.21;101235.19;5017426;28;20203;-72
2021/01/18 04:10:19;;;;;;;1.93;1.13;;;;;;;0.27;83.25;101226.47;5019031;28;20549;-72
2021/01/18 04:12:48;;;;;;;1.77;1.33;;;;;;;0.29;83.37;101235.22;5021603;28;20199;-72
2021/01/18 04:15:18;;;;;;;3.43;1.40;;;;;;;0.24;83.19;101225.66;5029656;28;20202;-72
2021/01/18 04:17:48;;;;;;;1.37;1.13;;;;;;;0.21;83.21;101230.97;5021418;28;20232;-72
2021/01/18 04:20:16;;;;;;;1.60;1.27;;;;;;;0.16;83.09;101232.84;5030300;28;20203;-72
2021/01/18 04:22:48;;;;;;;1.03;0.90;;;;;;;0.18;83.29;101228.41;5029966;28;20551;-72
2021/01/18 04:25:17;;;;;;;1.67;1.17;;;;;;;0.21;83.31;101216.00;5030082;28;20212;-72
2021/01/18 04:27:46;;;;;;;1.93;1.23;;;;;;;0.19;83.62;101212.53;5029287;28;20818;-72
2021/01/18 04:30:14;;;;;;;2.43;1.40;;;;;;;0.10;82.89;101217.97;5027438;28;20211;-73
2021/01/18 04:32:43;;;;;;;27.00;10.43;;;;;;;0.12;82.94;101216.19;5028020;28;20238;-72
2021/01/18 04:35:10;;;;;;;13.73;7.67;;;;;;;0.17;83.10;101202.91;5030304;28;20717;-72
2021/01/18 04:37:37;;;;;;;3.73;1.93;;;;;;;0.15;83.03;101204.69;5028982;28;20720;-72
2021/01/18 04:40:06;;;;;;;5.23;1.67;;;;;;;0.11;82.63;101203.88;5027183;28;20210;-72
2021/01/18 04:42:33;;;;;;;5.27;1.90;;;;;;;0.13;82.99;101207.38;5028196;28;20708;-72
2021/01/18 04:45:01;;;;;;;1.67;1.30;;;;;;;0.10;83.11;101193.34;5026435;28;20240;-72
2021/01/18 04:47:30;;;;;;;1.53;1.20;;;;;;;0.16;82.33;101196.75;5028096;28;20238;-72
2021/01/18 04:50:00;;;;;;;3.27;1.90;;;;;;;0.17;82.62;101185.28;5027809;28;20238;-72
2021/01/18 04:52:46;;;;;;;2.57;1.10;;;;;;;0.18;82.21;101192.31;5028074;28;20685;-72
2021/01/18 04:55:26;;;;;;;1.60;1.43;;;;;;;0.18;81.59;101188.78;5028736;28;20196;-72
2021/01/18 04:58:08;;;;;;;1.87;1.40;;;;;;;0.18;82.48;101183.50;5028408;28;20704;-71
2021/01/18 05:00:40;;;;;;;3.40;1.80;;;;;;;0.21;82.62;101173.75;5033186;28;20700;-72
2021/01/18 05:03:09;;;;;;;4.17;2.60;;;;;;;0.23;82.38;101176.38;5019349;28;20213;-72
2021/01/18 05:06:25;;;;;;;4.30;1.70;;;;;;;0.30;82.79;101183.28;5027605;28;20206;-73
2021/01/18 05:09:32;;;;;;;2.50;1.23;;;;;;;0.28;82.52;101182.44;5027815;28;20210;-72
2021/01/18 05:11:59;;;;;;;1.73;1.30;;;;;;;0.11;82.38;101158.13;5026951;28;20290;-72
2021/01/18 05:14:27;;;;;;;8.67;6.50;;;;;;;0.23;82.76;101168.44;5023379;28;20219;-71
2021/01/18 05:16:56;;;;;;;3.20;2.33;;;;;;;0.27;82.81;101176.28;5025052;28;20199;-73
2021/01/18 05:19:26;;;;;;;2.40;1.37;;;;;;;0.33;82.96;101177.09;5023002;28;20234;-72
2021/01/18 05:21:53;;;;;;;3.60;1.70;;;;;;;0.30;82.12;101167.44;5026144;28;20221;-73
2021/01/18 05:24:21;;;;;;;1.97;1.27;;;;;;;0.22;82.16;101164.94;5024004;28;20228;-73
2021/01/18 05:27:08;;;;;;;4.37;1.77;;;;;;;0.19;81.75;101165.00;5023512;28;20218;-73
2021/01/18 05:29:38;;;;;;;3.60;1.57;;;;;;;0.15;81.44;101171.25;5026562;28;20218;-72
2021/01/18 05:32:20;;;;;;;5.67;1.80;;;;;;;0.18;81.76;101162.38;5024432;28;20226;-74
2021/01/18 05:34:51;;;;;;;1.73;1.63;;;;;;;0.09;81.23;101163.44;5025804;28;20229;-73
2021/01/18 05:37:18;;;;;;;3.30;1.93;;;;;;;0.16;81.49;101166.84;5023492;28;20217;-72
2021/01/18 05:39:45;;;;;;;2.97;1.73;;;;;;;0.15;81.74;101165.09;5026073;28;20576;-73
2021/01/18 05:42:22;;;;;;;3.10;1.30;;;;;;;0.17;81.80;101165.94;5025296;28;20289;-74
2021/01/18 05:44:50;;;;;;;2.57;1.73;;;;;;;0.13;81.56;101159.84;5017773;28;20804;-73
2021/01/18 05:47:18;;;;;;;2.40;1.47;;;;;;;0.16;81.89;101157.13;5023524;28;20227;-73
2021/01/18 05:49:48;;;;;;;3.03;1.90;;;;;;;0.13;81.52;101154.56;5032796;28;20239;-73
2021/01/18 05:52:26;;;;;;;1.70;1.30;;;;;;;0.12;81.40;101150.19;5031817;28;20198;-73
2021/01/18 05:55:16;;;;;;;1.57;1.17;;;;;;;0.15;81.99;101147.47;5017080;28;20287;-72
2021/01/18 05:57:46;;;;;;;1.87;1.37;;;;;;;0.18;81.81;101152.69;5020601;28;20237;-72
2021/01/18 06:00:23;;;;;;;1.53;1.03;;;;;;;0.15;81.75;101142.19;5023171;28;20210;-72
2021/01/18 06:02:51;;;;;;;2.90;1.50;;;;;;;0.12;81.38;101142.25;5016366;28;20662;-73
2021/01/18 06:05:33;;;;;;;5.77;1.87;;;;;;;0.09;81.38;101147.59;5020244;28;20221;-73
2021/01/18 06:08:11;;;;;;;3.27;1.53;;;;;;;0.17;81.97;101145.69;5019245;28;20287;-72
2021/01/18 06:10:39;;;;;;;3.43;1.90;;;;;;;0.19;81.70;101153.56;5018706;28;20200;-72
2021/01/18 06:13:19;;;;;;;1.47;1.23;;;;;;;0.21;81.84;101142.06;5019315;28;20207;-72
2021/01/18 06:15:47;;;;;;;2.80;1.83;;;;;;;0.03;81.87;101105.47;5018387;28;20211;-72
2021/01/18 06:18:16;;;;;;;1.63;1.43;;;;;;;0.13;81.64;101132.56;5029752;28;20689;-72
2021/01/18 06:20:44;;;;;;;2.23;1.40;;;;;;;0.21;82.02;101136.78;5026521;28;20260;-73
2021/01/18 06:23:11;;;;;;;2.87;1.47;;;;;;;0.22;82.02;101137.66;5023823;28;20196;-72
2021/01/18 06:25:39;;;;;;;2.53;1.60;;;;;;;0.10;81.66;101128.22;5020258;28;20206;-72
2021/01/18 06:28:28;;;;;;;2.33;1.60;;;;;;;0.15;81.81;101134.28;5024354;28;20626;-73
2021/01/18 06:30:58;;;;;;;266.23;100.80;;;;;;;0.17;82.16;101137.75;5018036;28;20505;-72
2021/01/18 06:33:36;;;;;;;285.30;101.30;;;;;;;0.17;81.49;101132.47;5019110;28;21417;-72
2021/01/18 06:36:13;;;;;;;13.57;5.00;;;;;;;0.17;82.01;101135.13;5019257;28;20233;-72
2021/01/18 06:38:41;;;;;;;3.40;2.70;;;;;;;0.23;82.51;101140.28;5022499;28;20203;-72
2021/01/18 06:41:09;;;;;;;5.23;2.23;;;;;;;0.28;82.51;101143.69;5021666;28;20577;-72
2021/01/18 06:43:45;;;;;;;3.00;1.87;;;;;;;0.27;81.63;101144.59;5015742;28;20224;-72
2021/01/18 06:46:18;;;;;;;4.00;2.00;;;;;;;0.29;81.59;101139.28;5023177;28;20205;-72
2021/01/18 06:48:48;;;;;;;2.70;1.63;;;;;;;0.06;81.39;101113.34;5012127;28;20215;-72
2021/01/18 06:51:17;;;;;;;1.57;1.47;;;;;;;0.30;81.63;101152.44;5018081;28;20569;-72
2021/01/18 06:53:45;;;;;;;1.37;1.20;;;;;;;0.25;81.87;101143.75;5017259;28;20727;-72
2021/01/18 06:56:51;;;;;;;8.87;6.17;;;;;;;0.38;82.25;101143.53;5020850;28;20283;-72
2021/01/18 06:59:34;;;;;;;3.93;2.73;;;;;;;0.45;82.14;101147.78;5009070;28;20210;-72
2021/01/18 07:02:21;;;;;;;4.13;1.33;;;;;;;0.50;82.01;101145.94;5016859;28;20202;-72
2021/01/18 07:04:50;;;;;;;3.87;3.13;;;;;;;0.52;81.95;101146.75;5022077;28;20245;-72
2021/01/18 07:07:25;;;;;;;5.60;2.43;;;;;;;0.52;82.21;101139.72;5023024;28;20233;-72
2021/01/18 07:09:57;;;;;;;3.53;1.67;;;;;;;0.54;82.12;101144.97;5021492;28;20214;-73
2021/01/18 07:12:25;;;;;;;3.80;2.10;;;;;;;0.50;82.15;101132.72;5013718;28;20849;-72
2021/01/18 07:14:58;;;;;;;2.60;1.47;;;;;;;0.59;82.46;101151.00;5015922;28;20701;-72
2021/01/18 07:17:53;;;;;;;2.83;1.77;;;;;;;0.58;82.23;101149.28;5020167;28;20294;-72
2021/01/18 07:20:23;;;;;;;3.80;1.60;;;;;;;0.52;81.83;101144.13;5018691;28;20637;-72
2021/01/18 07:23:31;;;;;;;2.83;1.80;;;;;;;0.49;81.61;101146.81;5022606;28;20274;-72
2021/01/18 07:26:32;;;;;;;1.33;1.03;;;;;;;0.42;81.24;101146.09;5020537;28;20205;-73
2021/01/18 07:29:06;;;;;;;1.27;0.90;;;;;;;0.43;81.48;101152.25;5013370;28;20197;-72
2021/01/18 07:31:36;;;;;;;1.10;1.00;;;;;;;0.38;81.55;101146.19;5023373;28;20212;-72
2021/01/18 07:34:04;;;;;;;1.60;1.30;;;;;;;0.36;81.28;101148.84;5015928;28;20435;-73
2021/01/18 07:36:33;;;;;;;1.83;1.20;;;;;;;0.39;81.65;101146.16;5016425;28;20231;-72
2021/01/18 07:39:00;;;;;;;2.70;1.60;;;;;;;0.38;81.62;101149.69;5022255;28;20207;-72
2021/01/18 07:41:36;;;;;;;2.50;1.40;;;;;;;0.28;81.06;101156.91;5018775;28;20209;-72
2021/01/18 07:44:04;;;;;;;2.40;1.33;;;;;;;0.34;81.49;101152.44;5016535;28;20307;-72
2021/01/18 07:46:41;;;;;;;2.60;1.27;;;;;;;0.39;81.54;101150.56;5022155;28;20209;-73
2021/01/18 07:49:38;;;;;;;2.80;1.33;;;;;;;0.41;81.92;101149.63;5023968;28;20301;-73
2021/01/18 07:52:30;;;;;;;2.80;1.20;;;;;;;0.40;81.78;101149.66;5026073;28;20210;-73
2021/01/18 07:54:59;;;;;;;2.20;1.40;;;;;;;0.40;81.87;101147.03;5021783;28;20209;-72
2021/01/18 07:57:41;;;;;;;3.30;1.67;;;;;;;0.37;81.52;101147.09;5029426;28;20678;-72
2021/01/18 08:00:31;;;;;;;1.30;1.20;;;;;;;0.36;81.46;101145.34;5015908;28;20771;-72
2021/01/18 08:03:29;;;;;;;1.63;1.30;;;;;;;0.39;82.08;101145.28;5023642;28;20197;-72
2021/01/18 08:06:05;;;;;;;1.70;1.37;;;;;;;0.28;82.12;101129.63;5027909;28;20283;-72
2021/01/18 08:08:34;;;;;;;3.03;1.43;;;;;;;0.39;82.14;101140.00;5021429;28;20204;-72
2021/01/18 08:11:03;;;;;;;2.50;1.00;;;;;;;0.07;81.68;101095.72;5029356;28;20231;-72
2021/01/18 08:13:45;;;;;;;2.83;1.50;;;;;;;0.34;82.05;101128.66;5027863;28;20203;-73
2021/01/18 08:16:14;;;;;;;3.00;1.40;;;;;;;0.40;82.19;101128.53;5028699;28;20208;-73
2021/01/18 08:18:55;;;;;;;1.57;1.10;;;;;;;0.41;82.30;101123.22;5029355;28;20730;-72
2021/01/18 08:21:59;;;;;;;2.43;1.23;;;;;;;0.42;82.17;101124.94;5029348;28;20216;-72
2021/01/18 08:24:52;;;;;;;2.17;1.00;;;;;;;0.38;81.90;101125.06;5006642;28;20772;-73
2021/01/18 08:27:46;;;;;;;2.47;1.23;;;;;;;0.33;81.19;101124.28;5017800;28;20274;-72
2021/01/18 08:30:38;;;;;;;1.40;1.10;;;;;;;0.36;81.91;101124.22;5026681;28;20628;-73
2021/01/18 08:33:07;;;;;;;1.30;1.13;;;;;;;0.35;81.74;101117.19;5028557;28;20224;-72
2021/01/18 08:35:42;;;;;;;3.23;1.33;;;;;;;0.34;81.97;101123.38;5028570;28;20246;-72
2021/01/18 08:38:19;;;;;;;1.40;1.30;;;;;;;0.34;81.55;101124.25;5028752;28;20236;-72
2021/01/18 08:40:49;;;;;;;5.67;1.63;;;;;;;0.40;82.27;101116.19;5028952;28;20689;-72
2021/01/18 08:43:17;;;;;;;3.90;1.70;;;;;;;0.40;82.25;101120.59;5028582;28;20216;-72
2021/01/18 08:45:49;;;;;;;1.83;1.40;;;;;;;0.42;81.90;101116.16;5028665;28;20576;-73
2021/01/18 08:48:20;;;;;;;2.53;1.33;;;;;;;0.47;82.07;101122.22;5026915;28;20223;-73
2021/01/18 08:50:52;;;;;;;2.37;1.70;;;;;;;0.50;82.26;101127.44;5028269;28;20200;-72
2021/01/18 08:53:29;;;;;;;1.40;1.30;;;;;;;0.51;82.20;101130.03;5028632;28;20846;-72
2021/01/18 08:55:58;;;;;;;3.40;2.00;;;;;;;0.51;82.06;101124.75;5026621;28;20196;-72
2021/01/18 08:58:40;;;;;;;1.90;1.30;;;;;;;0.48;81.90;101116.91;5026305;28;20241;-73
2021/01/18 09:01:13;;;;;;;2.97;1.47;;;;;;;0.42;81.92;101102.94;5014396;28;20292;-72
2021/01/18 09:03:41;;;;;;;1.70;1.47;;;;;;;0.51;81.85;101121.25;5021934;28;20199;-73
2021/01/18 09:06:10;;;;;;;3.30;1.53;;;;;;;0.52;81.74;101123.00;5014760;28;20227;-73
2021/01/18 09:08:40;;;;;;;2.17;1.33;;;;;;;0.50;81.59;101117.72;5021923;28;20322;-72
2021/01/18 09:11:09;;;;;;;1.63;1.43;;;;;;;0.53;82.25;101119.44;5026491;28;20196;-72
2021/01/18 09:13:39;;;;;;;4.50;1.67;;;;;;;0.59;82.21;101117.53;5028135;28;20203;-72
2021/01/18 09:16:09;;;;;;;2.97;1.40;;;;;;;0.35;82.16;101086.38;5028107;28;20200;-72
2021/01/18 09:18:36;;;;;;;1.57;1.30;;;;;;;0.60;82.44;101121.03;5027373;28;20197;-72
2021/01/18 09:21:07;;;;;;;1.47;1.37;;;;;;;0.41;81.03;101095.94;5025899;28;20308;-72
2021/01/18 09:23:36;;;;;;;2.00;1.63;;;;;;;0.57;82.00;101108.78;5028207;28;20198;-73
2021/01/18 09:26:11;;;;;;;1.80;1.53;;;;;;;0.59;82.36;101111.38;5026673;28;20211;-73
2021/01/18 09:28:39;;;;;;;3.90;1.87;;;;;;;0.58;82.11;101107.88;5025018;28;20202;-73
2021/01/18 09:31:08;;;;;;;3.00;1.40;;;;;;;0.64;82.39;101101.63;5027781;28;20204;-73
2021/01/18 09:33:36;;;;;;;3.50;1.70;;;;;;;0.58;81.98;101097.31;5027541;28;20204;-73
2021/01/18 09:36:04;;;;;;;1.53;1.10;;;;;;;0.63;81.83;101104.28;5027689;28;20234;-72
2021/01/18 09:38:31;;;;;;;1.40;1.30;;;;;;;0.60;81.99;101094.63;5027597;28;20213;-72
2021/01/18 09:41:00;;;;;;;3.30;1.33;;;;;;;0.57;81.41;101095.56;5027347;28;20570;-73
2021/01/18 09:43:29;;;;;;;1.67;1.10;;;;;;;0.69;82.42;101090.94;5027477;28;20209;-73
2021/01/18 09:45:57;;;;;;;3.17;1.60;;;;;;;0.75;82.74;101096.97;5027406;28;20808;-73
2021/01/18 09:48:25;;;;;;;1.40;1.30;;;;;;;0.57;81.14;101097.34;5026636;28;20209;-72
2021/01/18 09:51:03;;;;;;;1.70;1.50;;;;;;;0.67;82.16;101093.63;5024194;28;20282;-72
2021/01/18 09:53:31;;;;;;;2.90;1.60;;;;;;;0.40;81.38;101051.94;5027089;28;20691;-73
2021/01/18 09:56:01;;;;;;;2.73;1.43;;;;;;;0.71;82.08;101091.78;5018896;28;20509;-72
2021/01/18 09:58:40;;;;;;;3.00;1.60;;;;;;;0.73;82.21;101087.31;5019342;28;20643;-73
2021/01/18 10:01:12;;;;;;;3.27;1.13;;;;;;;0.79;82.55;101082.75;5017357;28;20631;-72
2021/01/18 10:03:41;;;;;;;2.30;1.40;;;;;;;0.67;81.17;101087.47;5020172;28;20202;-73
2021/01/18 10:06:10;;;;;;;2.63;1.53;;;;;;;0.71;81.94;101081.19;5027185;28;20215;-72
2021/01/18 10:08:41;;;;;;;1.60;1.47;;;;;;;0.74;82.23;101074.06;5026503;28;20230;-72
2021/01/18 10:11:09;;;;;;;2.10;1.30;;;;;;;0.71;82.26;101071.50;5025627;28;20236;-72
2021/01/18 10:13:37;;;;;;;2.67;1.60;;;;;;;0.79;82.56;101080.13;5025564;28;20204;-72
2021/01/18 10:16:10;;;;;;;1.60;1.23;;;;;;;0.56;82.80;101027.78;5027507;28;20201;-72
2021/01/18 10:18:41;;;;;;;3.33;1.40;;;;;;;0.79;82.25;101074.84;5014121;28;20208;-72
2021/01/18 10:21:11;;;;;;;2.40;1.53;;;;;;;0.75;81.49;101069.66;5026968;28;20577;-72
2021/01/18 10:23:40;;;;;;;1.20;1.10;;;;;;;0.80;81.84;101065.13;5011989;28;20200;-72
2021/01/18 10:26:22;;;;;;;1.83;1.30;;;;;;;0.85;82.48;101065.91;5026976;28;20229;-72
2021/01/18 10:28:52;;;;;;;1.97;1.23;;;;;;;0.78;82.47;101057.25;5013684;28;20209;-72
2021/01/18 10:31:20;;;;;;;1.70;1.37;;;;;;;0.85;82.26;101064.13;5026821;28;20205;-72
2021/01/18 10:34:15;;;;;;;1.43;1.33;;;;;;;0.88;82.45;101061.41;5024955;28;20695;-72
2021/01/18 10:36:44;;;;;;;2.70;1.37;;;;;;;0.85;82.05;101061.47;5026804;28;20287;-72
2021/01/18 10:39:35;;;;;;;2.40;1.60;;;;;;;0.86;81.98;101063.22;5025000;28;20203;-73
2021/01/18 10:42:10;;;;;;;1.87;1.30;;;;;;;0.87;82.13;101064.09;5003966;28;20637;-73
2021/01/18 10:44:40;;;;;;;1.47;1.37;;;;;;;0.67;82.35;101024.91;5024461;28;20207;-73
2021/01/18 10:47:07;;;;;;;2.23;1.30;;;;;;;0.92;82.30;101056.94;5031329;28;20687;-72
2021/01/18 10:49:35;;;;;;;2.20;1.60;;;;;;;0.89;81.81;101056.97;5023812;28;20285;-72
2021/01/18 10:52:07;;;;;;;1.97;1.30;;;;;;;0.96;82.61;101053.31;5024319;28;20746;-72
2021/01/18 10:54:35;;;;;;;2.03;1.67;;;;;;;1.03;82.82;101054.03;5024198;28;20728;-72
2021/01/18 10:57:18;;;;;;;2.20;1.33;;;;;;;1.00;83.00;101047.06;5024598;28;20206;-73
2021/01/18 11:00:07;;;;;;;1.63;1.47;;;;;;;1.05;82.71;101052.22;5024518;28;20201;-72
2021/01/18 11:02:35;;;;;;;2.43;1.60;;;;;;;1.08;82.88;101052.16;5024511;28;20571;-72
2021/01/18 11:05:02;;;;;;;2.47;1.20;;;;;;;1.09;82.83;101044.19;5031338;28;20229;-72
2021/01/18 11:07:30;;;;;;;1.67;1.30;;;;;;;0.91;81.66;101039.31;5024219;28;20201;-72
2021/01/18 11:10:01;;;;;;;147.10;83.47;;;;;;;0.98;81.69;101037.41;5023018;28;20715;-72
2021/01/18 11:12:32;;;;;;;18.57;9.20;;;;;;;0.93;82.02;101033.13;5021692;28;20755;-72
2021/01/18 11:15:00;;;;;;;4.13;2.27;;;;;;;0.93;82.73;101022.53;5023198;28;20233;-72
2021/01/18 11:17:29;;;;;;;2.73;1.70;;;;;;;1.06;82.54;101038.97;5021754;28;20226;-72
2021/01/18 11:19:56;;;;;;;3.70;1.53;;;;;;;1.07;81.92;101039.84;5023171;28;20210;-72
2021/01/18 11:22:24;;;;;;;6.97;1.90;;;;;;;1.09;81.71;101043.31;5024089;28;20229;-72
2021/01/18 11:24:51;;;;;;;2.80;2.00;;;;;;;1.13;81.81;101037.03;5023507;28;20236;-72
2021/01/18 11:27:20;;;;;;;3.93;1.70;;;;;;;1.15;81.93;101032.56;5023382;28;20204;-72
2021/01/18 11:29:47;;;;;;;2.90;1.57;;;;;;;1.14;81.20;101037.00;5020923;28;20207;-72
2021/01/18 11:32:15;;;;;;;2.33;1.87;;;;;;;1.20;81.80;101043.91;5025142;28;20262;-72
2021/01/18 11:34:44;;;;;;;3.77;2.03;;;;;;;1.19;81.65;101036.88;5020527;28;20715;-72
2021/01/18 11:37:11;;;;;;;3.00;2.17;;;;;;;1.19;81.52;101044.81;5022533;28;20247;-72
2021/01/18 11:39:39;;;;;;;4.73;1.53;;;;;;;1.20;81.53;101041.25;5022349;28;20265;-72
2021/01/18 11:42:07;;;;;;;1.63;1.23;;;;;;;1.20;81.40;101035.97;5023332;28;20204;-72
2021/01/18 11:44:34;;;;;;;8.27;4.83;;;;;;;1.21;81.90;101032.41;5019073;28;20292;-72
2021/01/18 11:47:03;;;;;;;7.93;2.50;;;;;;;1.30;81.77;101034.84;5021163;28;20274;-72
2021/01/18 11:49:31;;;;;;;2.17;1.60;;;;;;;1.28;80.92;101039.31;5025728;28;20208;-72
2021/01/18 11:51:59;;;;;;;7.13;1.90;;;;;;;1.21;80.39;101025.34;5021484;28;20774;-72
2021/01/18 11:54:30;;;;;;;3.00;1.73;;;;;;;1.24;80.92;101030.59;5021311;28;20206;-72
2021/01/18 11:56:57;;;;;;;2.03;1.40;;;;;;;1.21;81.31;101025.34;5021183;28;20605;-72
2021/01/18 11:59:25;;;;;;;3.93;1.47;;;;;;;0.76;80.79;100948.06;5025567;28;20235;-72